Time;durP1;ratioP1;P1;durP2;ratioP2;P2;SDS_P1;SDS_P2;PMS_P1;PMS_P2;Temp;Humidity;BMP_temperature;BMP_pressure;BME280_temperature;BME280_humidity;BME280_pressure;Samples;Min_cycle;Max_cycle;Signal;HPM_P1;HPM_P2
2021/11/24 00:00:22;;;;;;;15.10;11.93;;;5.10;99.90;;;;;;5012217;28;20985;-75
2021/11/24 00:02:49;;;;;;;40.30;26.10;;;5.10;99.90;;;;;;5012633;28;20189;-75
2021/11/24 00:05:15;;;;;;;30.60;25.27;;;5.10;99.90;;;;;;5012469;28;20934;-74
2021/11/24 00:07:41;;;;;;;20.80;14.60;;;5.10;99.90;;;;;;5012471;28;20499;-75
2021/11/24 00:10:08;;;;;;;17.40;13.77;;;5.10;99.90;;;;;;5011949;28;20439;-75
2021/11/24 00:12:34;;;;;;;13.93;11.67;;;5.10;99.90;;;;;;5010698;28;20477;-72
2021/11/24 00:15:00;;;;;;;15.17;11.87;;;5.10;99.90;;;;;;5011543;28;20452;-70
2021/11/24 00:17:27;;;;;;;14.57;12.23;;;5.10;99.90;;;;;;5011945;28;20832;-70
2021/11/24 00:19:52;;;;;;;15.37;11.17;;;5.20;99.90;;;;;;5011546;28;20217;-70
2021/11/24 00:22:18;;;;;;;12.03;10.00;;;5.20;99.90;;;;;;5012053;28;20408;-70
2021/11/24 00:24:44;;;;;;;16.70;11.53;;;5.20;99.90;;;;;;5011861;28;20190;-70
2021/11/24 00:27:09;;;;;;;13.17;10.03;;;5.10;99.90;;;;;;5012252;28;20251;-70
2021/11/24 00:29:35;;;;;;;15.10;10.70;;;5.20;99.90;;;;;;5011816;28;20244;-70
2021/11/24 00:32:01;;;;;;;13.47;10.07;;;5.10;99.90;;;;;;5012072;28;20541;-70
2021/11/24 00:34:26;;;;;;;13.27;9.87;;;5.20;99.90;;;;;;5011986;28;20251;-70
2021/11/24 00:36:52;;;;;;;14.00;10.13;;;5.10;99.90;;;;;;5011169;28;20709;-69
2021/11/24 00:39:17;;;;;;;13.63;10.57;;;5.20;99.90;;;;;;5011739;28;20185;-70
2021/11/24 00:41:43;;;;;;;17.00;9.20;;;5.20;99.90;;;;;;5012012;28;20269;-70
2021/11/24 00:44:08;;;;;;;12.20;10.50;;;5.20;99.90;;;;;;5011715;28;20209;-70
2021/11/24 00:46:34;;;;;;;15.37;11.10;;;5.20;99.90;;;;;;5011868;28;20181;-70
2021/11/24 00:49:00;;;;;;;11.30;9.57;;;5.30;99.90;;;;;;5011535;28;20177;-70
2021/11/24 00:51:26;;;;;;;15.43;11.23;;;5.20;99.90;;;;;;5011806;28;20177;-70
2021/11/24 00:53:52;;;;;;;13.90;10.27;;;5.20;99.90;;;;;;5011641;28;20910;-71
2021/11/24 00:56:18;;;;;;;12.63;9.00;;;5.30;99.90;;;;;;5012174;28;20413;-72
2021/11/24 00:58:44;;;;;;;16.80;11.80;;;5.20;99.90;;;;;;5011719;28;20166;-71
2021/11/24 01:01:09;;;;;;;13.57;10.77;;;5.20;99.90;;;;;;5011503;28;20421;-72
2021/11/24 01:03:35;;;;;;;12.00;9.07;;;5.20;99.90;;;;;;5011553;28;20171;-72
2021/11/24 01:06:00;;;;;;;15.83;10.93;;;5.20;99.90;;;;;;5011709;28;20304;-72
2021/11/24 01:08:26;;;;;;;13.40;11.00;;;5.10;99.90;;;;;;5011643;28;20667;-71
2021/11/24 01:10:52;;;;;;;15.90;11.50;;;5.20;99.90;;;;;;5011184;28;20722;-72
2021/11/24 01:13:18;;;;;;;12.40;10.10;;;5.20;99.90;;;;;;5010318;28;20224;-72
2021/11/24 01:15:45;;;;;;;16.77;11.10;;;5.10;99.90;;;;;;5011715;28;20207;-72
2021/11/24 01:18:11;;;;;;;14.97;10.50;;;5.20;99.90;;;;;;5011614;28;20424;-72
2021/11/24 01:20:37;;;;;;;13.00;11.30;;;5.20;99.90;;;;;;5011313;28;20910;-72
2021/11/24 01:23:03;;;;;;;17.97;13.00;;;5.20;99.90;;;;;;5011530;28;20413;-72
2021/11/24 01:25:29;;;;;;;15.20;12.47;;;5.10;99.90;;;;;;5011726;28;20941;-72
2021/11/24 01:27:56;;;;;;;14.30;10.90;;;5.10;99.90;;;;;;5011527;28;20417;-71
2021/11/24 01:30:21;;;;;;;11.90;9.33;;;5.10;99.90;;;;;;5011239;28;21003;-72
2021/11/24 01:32:47;;;;;;;12.80;9.80;;;5.20;99.90;;;;;;5011347;28;20413;-75
2021/11/24 01:35:13;;;;;;;13.33;10.17;;;5.10;99.90;;;;;;5011480;28;20391;-75
2021/11/24 01:37:40;;;;;;;12.40;9.33;;;5.10;99.90;;;;;;5011577;28;21152;-75
2021/11/24 01:40:06;;;;;;;13.50;10.00;;;5.10;99.90;;;;;;5010890;28;20435;-75
2021/11/24 01:42:33;;;;;;;14.60;10.43;;;5.10;99.90;;;;;;5011453;28;20412;-72
2021/11/24 01:44:59;;;;;;;12.57;10.37;;;5.10;99.90;;;;;;5011435;28;20404;-72
2021/11/24 01:47:25;;;;;;;13.23;9.57;;;5.10;99.90;;;;;;5011649;28;20419;-72
2021/11/24 01:49:51;;;;;;;10.70;9.60;;;5.10;99.90;;;;;;5014410;28;20435;-72
2021/11/24 01:52:16;;;;;;;11.13;9.30;;;5.20;99.90;;;;;;5013717;28;20256;-75
2021/11/24 01:54:42;;;;;;;12.43;9.13;;;5.20;99.90;;;;;;5014714;28;20671;-74
2021/11/24 01:57:08;;;;;;;11.87;10.23;;;5.10;99.90;;;;;;5014913;28;20177;-75
2021/11/24 01:59:33;;;;;;;12.43;9.53;;;5.20;99.90;;;;;;5014369;28;20197;-74
2021/11/24 02:01:59;;;;;;;11.30;9.17;;;5.00;99.90;;;;;;5014792;28;20771;-75
2021/11/24 02:04:25;;;;;;;13.13;9.03;;;5.00;99.90;;;;;;5014420;28;20184;-75
2021/11/24 02:06:52;;;;;;;11.40;8.00;;;5.00;99.90;;;;;;5014700;28;20173;-74
2021/11/24 02:09:20;;;;;;;11.20;8.40;;;5.00;99.90;;;;;;5014088;28;20678;-75
2021/11/24 02:11:47;;;;;;;10.37;8.63;;;5.00;99.90;;;;;;5014654;28;20415;-75
2021/11/24 02:14:14;;;;;;;10.23;7.60;;;5.00;99.90;;;;;;5014296;28;20462;-75
2021/11/24 02:16:47;;;;;;;9.73;6.90;;;5.00;99.90;;;;;;5014485;28;20413;-75
2021/11/24 02:19:13;;;;;;;13.10;8.20;;;5.00;99.90;;;;;;5013989;28;20443;-75
2021/11/24 02:21:45;;;;;;;10.10;9.07;;;5.00;99.90;;;;;;5014520;28;20797;-75
2021/11/24 02:24:10;;;;;;;10.40;7.90;;;4.90;99.90;;;;;;5014325;28;20435;-75
2021/11/24 02:26:36;;;;;;;15.30;7.47;;;4.80;99.90;;;;;;5014335;28;20416;-75
2021/11/24 02:29:02;;;;;;;8.73;7.90;;;4.90;99.90;;;;;;5013944;28;20173;-75
2021/11/24 02:31:28;;;;;;;11.67;9.37;;;4.90;99.90;;;;;;5014036;28;20174;-75
2021/11/24 02:33:56;;;;;;;14.20;8.23;;;4.90;99.90;;;;;;5014065;28;20405;-75
2021/11/24 02:36:23;;;;;;;8.57;7.23;;;4.90;99.90;;;;;;5012789;28;20193;-75
2021/11/24 02:38:48;;;;;;;8.20;6.60;;;5.00;99.90;;;;;;5014026;28;20886;-73
2021/11/24 02:41:14;;;;;;;8.77;7.30;;;5.10;99.90;;;;;;5013516;28;20523;-75
2021/11/24 02:43:40;;;;;;;16.63;7.67;;;5.10;99.90;;;;;;5014107;28;20653;-72
2021/11/24 02:46:06;;;;;;;8.07;7.23;;;5.00;99.90;;;;;;5013721;28;20223;-73
2021/11/24 02:48:31;;;;;;;7.00;6.30;;;4.90;99.90;;;;;;5014289;28;20181;-75
2021/11/24 02:50:57;;;;;;;6.93;6.33;;;4.90;99.90;;;;;;5013488;28;20276;-75
2021/11/24 02:53:28;;;;;;;7.93;7.17;;;4.90;99.90;;;;;;5014300;28;20181;-72
2021/11/24 02:55:54;;;;;;;12.43;7.90;;;5.00;99.90;;;;;;5013874;28;20701;-72
2021/11/24 02:58:21;;;;;;;9.23;8.23;;;5.10;99.90;;;;;;5013060;28;20952;-72
2021/11/24 03:00:46;;;;;;;9.37;7.80;;;5.00;99.90;;;;;;5013108;28;20513;-70
2021/11/24 03:03:12;;;;;;;8.33;7.13;;;5.00;99.90;;;;;;5013595;28;20436;-70
2021/11/24 03:05:38;;;;;;;7.27;6.50;;;5.00;99.90;;;;;;5013737;28;20257;-70
2021/11/24 03:08:04;;;;;;;7.27;6.17;;;5.00;99.90;;;;;;5013515;28;20647;-70
2021/11/24 03:10:30;;;;;;;7.47;6.60;;;5.00;99.90;;;;;;5013288;28;20690;-70
2021/11/24 03:12:57;;;;;;;6.83;5.97;;;4.90;99.90;;;;;;5013348;28;20511;-70
2021/11/24 03:15:23;;;;;;;7.97;5.87;;;4.90;99.90;;;;;;5012196;28;20824;-70
2021/11/24 03:17:49;;;;;;;7.27;5.13;;;4.90;99.90;;;;;;5013535;28;20408;-69
2021/11/24 03:20:15;;;;;;;5.73;4.80;;;4.90;99.90;;;;;;5013006;28;20190;-70
2021/11/24 03:22:40;;;;;;;6.87;5.87;;;4.90;99.90;;;;;;5013395;28;20532;-70
2021/11/24 03:25:07;;;;;;;8.33;6.30;;;5.00;99.90;;;;;;5013201;28;20640;-70
2021/11/24 03:27:36;;;;;;;8.50;7.57;;;5.00;99.90;;;;;;5013338;28;20196;-70
2021/11/24 03:30:06;;;;;;;7.43;6.50;;;5.00;99.90;;;;;;5012633;28;20439;-70
2021/11/24 03:32:32;;;;;;;6.73;6.03;;;5.00;99.90;;;;;;5013134;28;20795;-69
2021/11/24 03:34:58;;;;;;;7.23;4.73;;;4.90;99.90;;;;;;5012974;28;20448;-70
2021/11/24 03:37:24;;;;;;;6.50;5.87;;;4.90;99.90;;;;;;5013182;28;20180;-70
2021/11/24 03:39:50;;;;;;;4.30;3.90;;;5.00;99.90;;;;;;5012719;28;20424;-69
2021/11/24 03:42:16;;;;;;;7.57;5.20;;;5.00;99.90;;;;;;5012831;28;21057;-70
2021/11/24 03:44:43;;;;;;;6.20;5.00;;;5.00;99.90;;;;;;5013016;28;20790;-70
2021/11/24 03:47:08;;;;;;;4.73;3.90;;;5.00;99.90;;;;;;5012819;28;20457;-71
2021/11/24 03:49:34;;;;;;;5.73;4.97;;;4.90;99.90;;;;;;5012671;28;20463;-70
2021/11/24 03:52:00;;;;;;;7.37;5.20;;;4.90;99.90;;;;;;5012824;28;20181;-70
2021/11/24 03:54:25;;;;;;;4.80;4.10;;;4.90;99.90;;;;;;5012732;28;20231;-72
2021/11/24 03:56:51;;;;;;;5.20;4.80;;;4.90;99.90;;;;;;5012610;28;20204;-72
2021/11/24 03:59:17;;;;;;;5.23;4.80;;;4.90;99.90;;;;;;5012392;28;20186;-73
2021/11/24 04:01:42;;;;;;;4.20;3.83;;;4.90;99.90;;;;;;5012664;28;20169;-70
2021/11/24 04:04:08;;;;;;;6.97;6.37;;;4.90;99.90;;;;;;5012669;28;20632;-70
2021/11/24 04:06:34;;;;;;;4.13;3.80;;;4.80;99.90;;;;;;5012666;28;20174;-70
2021/11/24 04:09:00;;;;;;;5.50;5.00;;;4.80;99.90;;;;;;5012237;28;20240;-70
2021/11/24 04:11:26;;;;;;;4.47;4.03;;;4.80;99.90;;;;;;5011598;28;20278;-70
2021/11/24 04:13:52;;;;;;;4.97;4.07;;;4.80;99.90;;;;;;5012309;28;20419;-70
2021/11/24 04:16:17;;;;;;;4.77;4.37;;;4.90;99.90;;;;;;5012473;28;20451;-71
2021/11/24 04:18:43;;;;;;;6.50;4.53;;;4.80;99.90;;;;;;5012335;28;20659;-70
2021/11/24 04:21:09;;;;;;;6.70;6.00;;;4.90;99.90;;;;;;5012126;28;20186;-70
2021/11/24 04:23:35;;;;;;;6.50;5.57;;;4.80;99.90;;;;;;5012239;28;20184;-70
2021/11/24 04:26:00;;;;;;;4.97;4.47;;;4.90;99.90;;;;;;5012356;28;20416;-70
2021/11/24 04:28:26;;;;;;;5.67;5.07;;;4.80;99.90;;;;;;5010973;28;20184;-72
2021/11/24 04:30:51;;;;;;;5.53;4.70;;;4.80;99.90;;;;;;5011801;28;20331;-70
2021/11/24 04:33:19;;;;;;;10.27;5.57;;;4.90;99.90;;;;;;5012302;28;20173;-70
2021/11/24 04:35:44;;;;;;;4.73;4.23;;;4.90;99.90;;;;;;5012035;28;20209;-70
2021/11/24 04:38:10;;;;;;;5.60;5.10;;;4.90;99.90;;;;;;5012287;28;20404;-70
2021/11/24 04:40:35;;;;;;;5.13;4.37;;;4.90;99.90;;;;;;5011382;28;20247;-70
2021/11/24 04:43:04;;;;;;;8.20;3.97;;;4.90;99.90;;;;;;5012039;28;20165;-70
2021/11/24 04:45:30;;;;;;;4.90;4.40;;;4.90;99.90;;;;;;5012084;28;20181;-70
2021/11/24 04:47:55;;;;;;;4.00;3.70;;;4.90;99.90;;;;;;5012137;28;20409;-70
2021/11/24 04:50:21;;;;;;;6.93;4.90;;;4.90;99.90;;;;;;5011541;28;20208;-70
2021/11/24 04:52:47;;;;;;;5.07;4.13;;;4.90;99.90;;;;;;5012030;28;20184;-70
2021/11/24 04:55:14;;;;;;;3.83;3.53;;;4.90;99.90;;;;;;5011882;28;20291;-70
2021/11/24 04:57:40;;;;;;;10.00;7.43;;;4.90;99.90;;;;;;5011979;28;20260;-70
2021/11/24 05:00:11;;;;;;;6.53;5.90;;;4.90;99.90;;;;;;5011727;28;20424;-70
2021/11/24 05:02:37;;;;;;;14.33;9.80;;;4.80;99.90;;;;;;5012265;28;20863;-70
2021/11/24 05:05:03;;;;;;;12.00;8.70;;;4.90;99.90;;;;;;5012028;28;20408;-70
2021/11/24 05:07:29;;;;;;;8.80;7.70;;;4.80;99.90;;;;;;5011757;28;20778;-70
2021/11/24 05:09:54;;;;;;;7.00;5.70;;;4.80;99.90;;;;;;5011561;28;20523;-70
2021/11/24 05:12:20;;;;;;;12.73;5.43;;;4.60;99.90;;;;;;5011653;28;20854;-72
2021/11/24 05:14:48;;;;;;;7.90;5.80;;;4.60;99.90;;;;;;5011846;28;20185;-72
2021/11/24 05:17:16;;;;;;;8.73;6.63;;;4.60;99.90;;;;;;5011727;28;20440;-72
2021/11/24 05:19:47;;;;;;;9.30;5.80;;;4.60;99.90;;;;;;5011490;28;20503;-72
2021/11/24 05:22:13;;;;;;;7.30;5.80;;;4.70;99.90;;;;;;5012879;28;20491;-72
2021/11/24 05:24:38;;;;;;;5.87;4.90;;;4.70;99.90;;;;;;5015577;28;20412;-72
2021/11/24 05:27:04;;;;;;;7.33;5.37;;;4.70;99.90;;;;;;5015552;28;20415;-73
2021/11/24 05:29:30;;;;;;;5.47;4.97;;;4.70;99.90;;;;;;5015023;28;20189;-72
2021/11/24 05:31:56;;;;;;;5.97;5.23;;;4.70;99.90;;;;;;5015507;28;20466;-72
2021/11/24 05:34:21;;;;;;;5.30;4.57;;;4.70;99.90;;;;;;5015184;28;20247;-72
2021/11/24 05:36:47;;;;;;;6.70;4.97;;;4.70;99.90;;;;;;5015305;28;20165;-72
2021/11/24 05:39:12;;;;;;;6.43;5.60;;;4.70;99.90;;;;;;5014762;28;20188;-72
2021/11/24 05:41:41;;;;;;;5.03;4.63;;;4.60;99.90;;;;;;5015249;28;20221;-72
2021/11/24 05:44:26;;;;;;;4.83;4.30;;;4.70;99.90;;;;;;5015026;28;20161;-72
2021/11/24 05:47:01;;;;;;;10.00;7.40;;;4.70;99.90;;;;;;5015309;28;20407;-72
2021/11/24 05:49:28;;;;;;;10.47;7.70;;;4.80;99.90;;;;;;5014648;28;20929;-73
2021/11/24 05:51:55;;;;;;;52.13;26.50;;;4.80;99.90;;;;;;5013856;28;20412;-73
2021/11/24 05:54:21;;;;;;;71.50;35.40;;;4.80;99.90;;;;;;5014975;28;20964;-72
2021/11/24 05:56:47;;;;;;;29.63;16.47;;;4.80;99.90;;;;;;5014806;28;20431;-71
2021/11/24 05:59:15;;;;;;;9.70;8.50;;;4.80;99.90;;;;;;5014737;28;20188;-70
2021/11/24 06:01:41;;;;;;;8.63;5.97;;;4.80;99.90;;;;;;5014802;28;20400;-70
2021/11/24 06:04:07;;;;;;;14.20;9.23;;;4.70;99.90;;;;;;5014837;28;20458;-70
2021/11/24 06:06:34;;;;;;;18.47;11.70;;;4.80;99.90;;;;;;5014753;28;20897;-69
2021/11/24 06:09:00;;;;;;;19.80;13.07;;;4.70;99.90;;;;;;5014455;28;20167;-70
2021/11/24 06:11:26;;;;;;;19.83;11.53;;;4.70;99.90;;;;;;5014631;28;20491;-70
2021/11/24 06:13:51;;;;;;;17.90;9.30;;;4.60;99.90;;;;;;5014732;28;20408;-71
2021/11/24 06:16:17;;;;;;;17.27;9.83;;;4.70;99.90;;;;;;5014614;28;20452;-69
2021/11/24 06:18:43;;;;;;;13.33;8.20;;;4.70;99.90;;;;;;5014541;28;20201;-70
2021/11/24 06:21:09;;;;;;;7.77;5.63;;;4.70;99.90;;;;;;5014333;28;20425;-70
2021/11/24 06:23:39;;;;;;;8.00;5.70;;;4.80;99.90;;;;;;5014312;28;20408;-70
2021/11/24 06:26:07;;;;;;;8.33;4.80;;;4.80;99.90;;;;;;5014546;28;20400;-72
2021/11/24 06:28:33;;;;;;;5.13;4.63;;;4.70;99.90;;;;;;5014268;28;20820;-72
2021/11/24 06:30:59;;;;;;;7.20;5.63;;;4.70;99.90;;;;;;5013795;28;20435;-73
2021/11/24 06:33:26;;;;;;;10.37;6.57;;;4.80;99.90;;;;;;5013133;28;20784;-72
2021/11/24 06:35:52;;;;;;;10.73;5.80;;;4.80;99.90;;;;;;5014099;28;20462;-76
2021/11/24 06:38:19;;;;;;;8.87;6.03;;;4.80;99.90;;;;;;5013390;28;20504;-72
2021/11/24 06:40:45;;;;;;;7.87;5.47;;;4.80;99.90;;;;;;5025572;28;20447;-72
2021/11/24 06:43:10;;;;;;;6.60;5.07;;;4.80;99.90;;;;;;5025350;28;20412;-72
2021/11/24 06:45:36;;;;;;;8.40;5.83;;;4.80;99.90;;;;;;5016789;28;20467;-72
2021/11/24 06:48:02;;;;;;;6.63;5.00;;;4.80;99.90;;;;;;5019230;28;20638;-71
2021/11/24 06:50:28;;;;;;;10.50;7.07;;;4.80;99.90;;;;;;5030801;28;20193;-72
2021/11/24 06:52:54;;;;;;;11.80;7.03;;;4.90;99.90;;;;;;5033681;28;20905;-71
2021/11/24 06:55:20;;;;;;;14.47;11.13;;;4.90;99.90;;;;;;5030198;28;21051;-72
2021/11/24 06:57:45;;;;;;;14.23;9.93;;;4.90;99.90;;;;;;5013765;28;20555;-72
2021/11/24 07:00:12;;;;;;;11.73;8.40;;;4.90;99.90;;;;;;5013400;28;20185;-72
2021/11/24 07:02:38;;;;;;;10.23;7.70;;;4.80;99.90;;;;;;5013656;28;20166;-72
2021/11/24 07:05:04;;;;;;;11.77;9.60;;;4.90;99.90;;;;;;5013759;28;20435;-72
2021/11/24 07:07:29;;;;;;;13.63;8.30;;;4.80;99.90;;;;;;5013543;28;20914;-70
2021/11/24 07:09:55;;;;;;;7.53;3.90;;;5.20;99.90;;;;;;5013093;28;20429;-71
2021/11/24 07:12:23;;;;;;;16.37;10.63;;;11.70;99.90;;;;;;5013533;28;20679;-74
2021/11/24 07:14:50;;;;;;;14.00;8.33;;;13.00;99.90;;;;;;5013439;28;20189;-73
2021/11/24 07:17:16;;;;;;;12.23;9.07;;;10.20;96.30;;;;;;5013487;28;20408;-73
2021/11/24 07:19:42;;;;;;;13.00;10.27;;;8.60;98.10;;;;;;5012945;28;20788;-73
2021/11/24 07:22:07;;;;;;;12.30;10.13;;;7.60;99.00;;;;;;5013386;28;20736;-73
2021/11/24 07:24:33;;;;;;;13.23;8.90;;;7.00;99.90;;;;;;5013209;28;20183;-74
2021/11/24 07:26:58;;;;;;;16.00;10.20;;;6.50;99.90;;;;;;5013376;28;20194;-74
2021/11/24 07:29:24;;;;;;;13.97;8.83;;;6.20;99.90;;;;;;5012759;28;20198;-73
2021/11/24 07:31:50;;;;;;;17.10;9.47;;;6.00;99.90;;;;;;5013188;28;20182;-72
2021/11/24 07:34:16;;;;;;;12.60;8.17;;;5.80;99.90;;;;;;5013079;28;20901;-73
2021/11/24 07:36:42;;;;;;;11.13;7.30;;;5.50;99.90;;;;;;5011810;28;20167;-74
2021/11/24 07:41:37;;;;;;;14.27;10.07;;;5.40;99.90;;;;;;5030543;28;20470;-74
2021/11/24 07:44:03;;;;;;;13.73;11.60;;;5.40;99.90;;;;;;5032512;28;20770;-74
2021/11/24 07:46:29;;;;;;;13.10;9.00;;;5.30;99.90;;;;;;5031238;28;20181;-74
2021/11/24 07:48:57;;;;;;;13.73;9.53;;;5.30;99.90;;;;;;5032372;28;20411;-73
2021/11/24 07:51:23;;;;;;;13.43;8.63;;;5.20;99.90;;;;;;5032631;28;20169;-72
2021/11/24 07:53:49;;;;;;;15.10;9.17;;;5.20;99.90;;;;;;5032344;28;20406;-73
2021/11/24 07:56:15;;;;;;;17.50;10.13;;;5.30;99.90;;;;;;5032529;28;20211;-74
2021/11/24 07:58:41;;;;;;;15.87;11.00;;;5.30;99.90;;;;;;5014991;28;20555;-73
2021/11/24 08:01:08;;;;;;;17.47;9.83;;;5.30;99.90;;;;;;5032172;28;20486;-72
2021/11/24 08:03:34;;;;;;;10.60;8.23;;;5.30;99.90;;;;;;5032154;28;20456;-73
2021/11/24 08:05:59;;;;;;;13.00;8.73;;;5.40;99.90;;;;;;5032322;28;20403;-73
2021/11/24 08:08:25;;;;;;;8.40;5.87;;;5.30;99.90;;;;;;5032382;28;20256;-72
2021/11/24 08:10:51;;;;;;;9.60;6.40;;;5.40;99.90;;;;;;5031795;28;20203;-73
2021/11/24 08:13:19;;;;;;;13.13;8.03;;;5.40;99.90;;;;;;5032136;28;20692;-73
2021/11/24 08:15:45;;;;;;;8.73;5.87;;;5.40;99.90;;;;;;5031966;28;20188;-73
2021/11/24 08:18:11;;;;;;;10.93;7.50;;;5.30;99.90;;;;;;5032309;28;20415;-77
2021/11/24 08:20:37;;;;;;;12.50;8.47;;;5.40;99.90;;;;;;5031729;28;20423;-73
2021/11/24 08:23:03;;;;;;;13.60;7.37;;;5.50;99.90;;;;;;5032072;28;20168;-73
2021/11/24 08:25:28;;;;;;;9.43;6.53;;;5.50;99.90;;;;;;5032096;28;20463;-73
2021/11/24 08:27:54;;;;;;;8.00;6.70;;;5.50;99.90;;;;;;5031798;28;20470;-73
2021/11/24 08:30:20;;;;;;;5.53;4.50;;;5.60;99.90;;;;;;5031722;28;20234;-72
2021/11/24 08:32:46;;;;;;;11.47;6.83;;;5.70;99.90;;;;;;5031825;28;20174;-72
2021/11/24 08:35:11;;;;;;;11.57;6.50;;;5.70;99.90;;;;;;5031897;28;20265;-73
2021/11/24 08:37:37;;;;;;;9.13;6.73;;;5.70;99.90;;;;;;5031801;28;20161;-73
2021/11/24 08:40:03;;;;;;;6.50;4.90;;;5.80;99.90;;;;;;5031162;28;20196;-73
2021/11/24 08:42:29;;;;;;;4.93;4.43;;;5.70;99.90;;;;;;5031692;28;20188;-72
2021/11/24 08:44:55;;;;;;;7.23;6.17;;;5.80;99.90;;;;;;5031748;28;20499;-73
2021/11/24 08:47:21;;;;;;;11.73;7.40;;;5.90;99.90;;;;;;5031893;28;20670;-71
2021/11/24 08:49:46;;;;;;;8.67;6.60;;;6.00;99.90;;;;;;5031270;28;20199;-71
2021/11/24 08:52:12;;;;;;;8.97;5.47;;;6.10;99.90;;;;;;5031636;28;20411;-73
2021/11/24 08:54:39;;;;;;;6.87;4.70;;;6.10;99.90;;;;;;5031995;28;20192;-73
2021/11/24 08:57:06;;;;;;;6.40;4.00;;;6.30;99.90;;;;;;5032773;28;20234;-72
2021/11/24 08:59:31;;;;;;;9.43;4.80;;;6.60;99.90;;;;;;5035466;28;20811;-73
2021/11/24 09:01:57;;;;;;;4.97;4.20;;;6.70;99.90;;;;;;5035749;28;20405;-73
2021/11/24 09:04:23;;;;;;;5.30;4.20;;;6.70;99.90;;;;;;5035640;28;20193;-72
2021/11/24 09:06:48;;;;;;;4.23;3.50;;;7.00;99.90;;;;;;5035605;28;20176;-74
2021/11/24 09:09:14;;;;;;;5.40;4.73;;;7.40;99.90;;;;;;5035332;28;20923;-73
2021/11/24 09:11:40;;;;;;;4.77;3.70;;;7.50;99.80;;;;;;5035617;28;20169;-73
2021/11/24 09:14:06;;;;;;;4.60;4.10;;;7.60;98.40;;;;;;5035489;28;20212;-72
2021/11/24 09:16:31;;;;;;;3.90;2.83;;;7.60;98.20;;;;;;5035619;28;20183;-72
2021/11/24 09:18:57;;;;;;;2.97;2.70;;;7.70;99.00;;;;;;5035068;28;20417;-72
2021/11/24 09:21:24;;;;;;;3.93;3.23;;;7.70;97.50;;;;;;5035507;28;20289;-73
2021/11/24 09:23:51;;;;;;;2.53;1.87;;;8.10;96.40;;;;;;5035171;28;20485;-72
2021/11/24 09:28:43;;;;;;;2.33;2.00;;;8.30;94.60;;;;;;5035447;28;20406;-72
2021/11/24 09:31:09;;;;;;;3.07;2.20;;;8.30;94.80;;;;;;5034881;28;20944;-72
2021/11/24 09:33:37;;;;;;;1.90;1.50;;;8.20;93.70;;;;;;5035296;28;20410;-73
2021/11/24 09:36:03;;;;;;;2.03;1.63;;;8.00;94.10;;;;;;5035165;28;20453;-73
2021/11/24 09:38:30;;;;;;;1.93;1.83;;;8.00;94.30;;;;;;5035069;28;20900;-73
2021/11/24 09:41:03;;;;;;;1.93;1.83;;;8.00;93.00;;;;;;5034497;28;20873;-75
2021/11/24 09:43:33;;;;;;;3.20;1.90;;;8.10;94.40;;;;;;5035147;28;20425;-75
2021/11/24 09:46:00;;;;;;;1.53;1.27;;;8.00;93.40;;;;;;5035074;28;20489;-73
2021/11/24 09:48:26;;;;;;;1.43;1.33;;;7.80;92.40;;;;;;5034956;28;20406;-72
2021/11/24 09:50:54;;;;;;;1.97;1.80;;;7.60;93.70;;;;;;5034543;28;20897;-73
2021/11/24 09:53:21;;;;;;;1.97;1.77;;;7.40;92.80;;;;;;5034715;28;20428;-74
2021/11/24 09:55:51;;;;;;;1.77;1.67;;;7.20;92.20;;;;;;5034802;28;20460;-72
2021/11/24 09:58:17;;;;;;;2.20;1.57;;;7.10;93.50;;;;;;5034626;28;20422;-71
2021/11/24 10:00:44;;;;;;;1.87;1.70;;;7.10;93.60;;;;;;5034354;28;20467;-71
2021/11/24 10:03:10;;;;;;;1.10;1.10;;;6.90;92.80;;;;;;5034434;28;20824;-73
2021/11/24 10:05:36;;;;;;;2.50;1.77;;;6.80;92.90;;;;;;5016665;28;20434;-72
2021/11/24 10:08:03;;;;;;;1.03;1.03;;;6.70;93.50;;;;;;5034508;28;20462;-71
2021/11/24 10:10:29;;;;;;;1.57;1.47;;;6.50;92.70;;;;;;5034009;28;20447;-71
2021/11/24 10:12:56;;;;;;;2.53;1.63;;;6.30;93.10;;;;;;5034476;28;20779;-71
2021/11/24 10:15:39;;;;;;;1.53;1.43;;;6.30;94.20;;;;;;5034318;28;20250;-71
2021/11/24 10:18:32;;;;;;;1.80;1.47;;;6.20;93.10;;;;;;5034331;28;20424;-71
2021/11/24 10:21:09;;;;;;;1.10;1.10;;;6.30;93.60;;;;;;5033942;28;20427;-71
2021/11/24 10:23:39;;;;;;;1.27;1.27;;;6.30;94.30;;;;;;5034307;28;20403;-71
2021/11/24 10:26:28;;;;;;;7.03;1.93;;;6.20;94.10;;;;;;5034202;28;20411;-72
2021/11/24 10:29:01;;;;;;;2.67;1.03;;;6.20;93.50;;;;;;5033999;28;20819;-72
2021/11/24 10:31:34;;;;;;;1.13;1.10;;;6.30;94.80;;;;;;5034084;28;20434;-74
2021/11/24 10:34:02;;;;;;;1.83;1.63;;;6.40;94.80;;;;;;5034185;28;20781;-74
2021/11/24 10:36:28;;;;;;;3.70;1.63;;;6.50;94.30;;;;;;5033224;28;20466;-73
2021/11/24 10:38:55;;;;;;;1.60;1.50;;;6.60;95.10;;;;;;5013721;28;20495;-73
2021/11/24 10:41:39;;;;;;;1.67;1.47;;;6.80;94.70;;;;;;5014122;28;20429;-75
2021/11/24 10:44:06;;;;;;;1.77;1.67;;;6.80;95.20;;;;;;5014077;28;20412;-74
2021/11/24 10:46:33;;;;;;;1.77;1.60;;;6.60;93.20;;;;;;5014202;28;20503;-74
2021/11/24 10:49:09;;;;;;;1.97;1.20;;;6.40;93.20;;;;;;5013773;28;20404;-74
2021/11/24 10:51:38;;;;;;;1.57;1.47;;;6.50;95.40;;;;;;5026758;28;20426;-73
2021/11/24 10:54:15;;;;;;;1.60;1.50;;;6.60;93.50;;;;;;5033807;28;20416;-73
2021/11/24 10:57:05;;;;;;;1.97;1.63;;;6.50;93.20;;;;;;5033571;28;20620;-74
2021/11/24 10:59:36;;;;;;;2.90;2.03;;;6.50;92.80;;;;;;5033196;28;20803;-75
2021/11/24 11:02:33;;;;;;;1.80;1.60;;;6.80;93.50;;;;;;5033266;28;20901;-74
2021/11/24 11:05:04;;;;;;;2.37;2.17;;;6.90;92.20;;;;;;5028613;28;20416;-74
2021/11/24 11:07:54;;;;;;;2.73;2.13;;;6.90;92.00;;;;;;5033266;28;20446;-76
2021/11/24 11:10:32;;;;;;;3.90;2.53;;;7.00;92.50;;;;;;5023300;28;20440;-74
2021/11/24 11:13:02;;;;;;;7.53;1.90;;;7.00;92.30;;;;;;5033158;28;20395;-74
2021/11/24 11:15:35;;;;;;;3.23;2.03;;;7.10;93.00;;;;;;5033151;28;20451;-75
2021/11/24 11:18:14;;;;;;;2.27;1.70;;;7.00;92.10;;;;;;5033165;28;20444;-74
2021/11/24 11:20:44;;;;;;;2.10;1.50;;;7.10;93.20;;;;;;5031866;28;20925;-74
2021/11/24 11:23:26;;;;;;;1.63;1.53;;;7.30;93.40;;;;;;5033103;28;20431;-74
2021/11/24 11:25:59;;;;;;;1.30;1.20;;;7.50;92.60;;;;;;5032977;28;20414;-74
2021/11/24 11:28:27;;;;;;;1.60;1.50;;;7.70;92.20;;;;;;5032985;28;20460;-74
2021/11/24 11:30:56;;;;;;;1.80;1.20;;;8.20;93.20;;;;;;5032284;28;20460;-73
2021/11/24 11:33:26;;;;;;;1.50;1.33;;;8.40;91.40;;;;;;5032783;28;20922;-73
2021/11/24 11:35:52;;;;;;;1.27;1.13;;;9.10;91.90;;;;;;5032876;28;20851;-74
2021/11/24 11:38:20;;;;;;;2.03;1.83;;;9.30;90.60;;;;;;5032665;28;20419;-74
2021/11/24 11:40:48;;;;;;;1.13;1.03;;;9.80;91.60;;;;;;5030656;28;20255;-74
2021/11/24 11:43:14;;;;;;;1.43;1.30;;;9.90;87.30;;;;;;5030530;28;20403;-75
2021/11/24 11:45:40;;;;;;;1.53;1.43;;;9.50;88.50;;;;;;5030828;28;20403;-75
2021/11/24 11:48:07;;;;;;;1.53;1.43;;;9.30;88.50;;;;;;5030973;28;20415;-75
2021/11/24 11:50:53;;;;;;;1.23;1.20;;;8.90;87.90;;;;;;5030522;28;20557;-74
2021/11/24 11:53:22;;;;;;;1.37;1.30;;;8.40;88.50;;;;;;5031097;28;20767;-72
2021/11/24 11:56:08;;;;;;;1.93;1.80;;;9.40;90.90;;;;;;5031934;28;20576;-72
2021/11/24 11:58:34;;;;;;;1.60;1.50;;;11.20;89.50;;;;;;5032491;28;20403;-73
2021/11/24 12:01:14;;;;;;;2.80;1.43;;;11.80;82.10;;;;;;5031886;28;20438;-76
2021/11/24 12:04:06;;;;;;;1.53;1.43;;;12.30;81.50;;;;;;5032231;28;20399;-76
2021/11/24 12:06:39;;;;;;;2.50;1.70;;;12.50;75.20;;;;;;5032059;28;20408;-75
2021/11/24 12:09:12;;;;;;;1.43;1.33;;;12.90;76.40;;;;;;5031953;28;20430;-75
2021/11/24 12:12:05;;;;;;;1.17;1.17;;;12.70;74.00;;;;;;5032072;28;21146;-75
2021/11/24 12:15:21;;;;;;;2.97;1.20;;;13.10;73.50;;;;;;5029987;28;20433;-75
2021/11/24 12:17:49;;;;;;;1.37;1.30;;;13.70;72.00;;;;;;5005842;28;20419;-74
2021/11/24 12:20:16;;;;;;;3.80;1.30;;;13.90;75.20;;;;;;5031688;28;20514;-74
2021/11/24 12:23:00;;;;;;;1.43;1.33;;;14.50;74.80;;;;;;5031849;28;20398;-75
2021/11/24 12:25:26;;;;;;;1.77;1.40;;;14.20;68.60;;;;;;5032099;28;20486;-75
2021/11/24 12:27:55;;;;;;;1.50;1.40;;;13.80;72.40;;;;;;5014185;28;20415;-75
2021/11/24 12:33:19;;;;;;;1.43;1.37;;;15.40;67.50;;;;;;5031049;28;20473;-75
2021/11/24 12:35:53;;;;;;;2.10;1.90;;;15.70;69.30;;;;;;5031681;28;20476;-74
2021/11/24 12:38:21;;;;;;;1.80;1.70;;;15.90;68.80;;;;;;5031977;28;20433;-75
2021/11/24 12:40:49;;;;;;;1.50;1.40;;;16.20;67.40;;;;;;5031164;28;20439;-76
2021/11/24 12:43:18;;;;;;;1.30;1.20;;;17.00;65.90;;;;;;5031755;28;20498;-74
2021/11/24 12:45:58;;;;;;;1.70;1.40;;;16.50;59.90;;;;;;5031589;28;20487;-75
2021/11/24 12:48:51;;;;;;;1.57;1.47;;;16.50;62.90;;;;;;5031720;28;20510;-75
2021/11/24 12:51:16;;;;;;;1.37;1.20;;;16.00;63.20;;;;;;5031385;28;20747;-76
2021/11/24 12:53:42;;;;;;;2.00;1.73;;;14.70;60.20;;;;;;5031658;28;20418;-75
2021/11/24 12:56:13;;;;;;;2.03;1.93;;;13.80;62.80;;;;;;5031601;28;20550;-75
2021/11/24 12:58:40;;;;;;;1.40;1.30;;;13.50;66.40;;;;;;5031537;28;20173;-75
2021/11/24 13:01:16;;;;;;;2.53;2.33;;;13.10;65.70;;;;;;5031250;28;20427;-74